sensor_id;sensor_type;location;lat;lon;timestamp;temperature;humidity
58638;DHT22;54976;51.510;7.522;2023-04-24T00:02:09;11.50;93.40
58638;DHT22;54976;51.510;7.522;2023-04-24T00:05:11;11.50;93.60
58638;DHT22;54976;51.510;7.522;2023-04-24T00:08:12;11.40;93.60
58638;DHT22;54976;51.510;7.522;2023-04-24T00:11:12;11.50;93.90
58638;DHT22;54976;51.510;7.522;2023-04-24T00:14:13;11.30;94.30
58638;DHT22;54976;51.510;7.522;2023-04-24T00:17:13;11.20;94.60
58638;DHT22;54976;51.510;7.522;2023-04-24T00:20:14;11.30;94.60
58638;DHT22;54976;51.510;7.522;2023-04-24T00:23:15;11.30;94.50
58638;DHT22;54976;51.510;7.522;2023-04-24T00:26:15;11.40;94.30
58638;DHT22;54976;51.510;7.522;2023-04-24T00:29:16;11.50;93.50
58638;DHT22;54976;51.510;7.522;2023-04-24T00:32:16;11.60;93.30
58638;DHT22;54976;51.510;7.522;2023-04-24T00:35:18;11.50;93.00
58638;DHT22;54976;51.510;7.522;2023-04-24T00:38:20;11.60;93.00
58638;DHT22;54976;51.510;7.522;2023-04-24T00:41:22;11.50;93.10
58638;DHT22;54976;51.510;7.522;2023-04-24T00:44:25;11.50;92.70
58638;DHT22;54976;51.510;7.522;2023-04-24T00:47:25;11.50;92.80
58638;DHT22;54976;51.510;7.522;2023-04-24T00:50:27;11.50;93.10
58638;DHT22;54976;51.510;7.522;2023-04-24T00:53:28;11.40;92.80
58638;DHT22;54976;51.510;7.522;2023-04-24T00:56:29;11.30;93.10
58638;DHT22;54976;51.510;7.522;2023-04-24T00:59:30;11.30;93.30
58638;DHT22;54976;51.510;7.522;2023-04-24T01:02:30;11.20;93.70
58638;DHT22;54976;51.510;7.522;2023-04-24T01:05:34;11.10;93.80
58638;DHT22;54976;51.510;7.522;2023-04-24T01:08:36;11.20;93.50
58638;DHT22;54976;51.510;7.522;2023-04-24T01:11:37;11.10;93.40
58638;DHT22;54976;51.510;7.522;2023-04-24T01:14:38;11.10;93.40
58638;DHT22;54976;51.510;7.522;2023-04-24T01:17:38;11.00;93.60
58638;DHT22;54976;51.510;7.522;2023-04-24T01:20:40;11.00;92.90
58638;DHT22;54976;51.510;7.522;2023-04-24T01:23:44;11.10;92.30
58638;DHT22;54976;51.510;7.522;2023-04-24T01:26:45;11.10;92.10
58638;DHT22;54976;51.510;7.522;2023-04-24T01:29:47;11.10;91.40
58638;DHT22;54976;51.510;7.522;2023-04-24T01:32:52;11.10;91.50
58638;DHT22;54976;51.510;7.522;2023-04-24T01:35:53;11.10;91.20
58638;DHT22;54976;51.510;7.522;2023-04-24T01:38:54;11.30;91.10
58638;DHT22;54976;51.510;7.522;2023-04-24T01:41:55;11.40;91.60
58638;DHT22;54976;51.510;7.522;2023-04-24T01:44:57;11.30;91.50
58638;DHT22;54976;51.510;7.522;2023-04-24T01:47:57;11.30;91.60
58638;DHT22;54976;51.510;7.522;2023-04-24T01:50:59;11.30;91.60
58638;DHT22;54976;51.510;7.522;2023-04-24T01:54:00;11.40;91.50
58638;DHT22;54976;51.510;7.522;2023-04-24T01:57:00;11.40;91.40
58638;DHT22;54976;51.510;7.522;2023-04-24T02:00:03;11.30;91.30
58638;DHT22;54976;51.510;7.522;2023-04-24T02:03:05;11.30;91.60
58638;DHT22;54976;51.510;7.522;2023-04-24T02:06:06;11.30;91.50
58638;DHT22;54976;51.510;7.522;2023-04-24T02:09:07;11.30;92.20
58638;DHT22;54976;51.510;7.522;2023-04-24T02:12:08;11.30;92.20
58638;DHT22;54976;51.510;7.522;2023-04-24T02:15:09;11.30;92.30
58638;DHT22;54976;51.510;7.522;2023-04-24T02:18:10;11.20;92.60
58638;DHT22;54976;51.510;7.522;2023-04-24T02:21:11;11.10;93.10
58638;DHT22;54976;51.510;7.522;2023-04-24T02:24:12;11.20;93.00
58638;DHT22;54976;51.510;7.522;2023-04-24T02:27:12;11.40;92.70
58638;DHT22;54976;51.510;7.522;2023-04-24T02:30:13;11.40;92.80
58638;DHT22;54976;51.510;7.522;2023-04-24T02:33:14;11.20;93.00
58638;DHT22;54976;51.510;7.522;2023-04-24T02:36:15;11.20;93.10
58638;DHT22;54976;51.510;7.522;2023-04-24T02:39:15;11.20;92.40
58638;DHT22;54976;51.510;7.522;2023-04-24T02:42:19;11.20;92.00
58638;DHT22;54976;51.510;7.522;2023-04-24T02:45:19;11.10;91.80
58638;DHT22;54976;51.510;7.522;2023-04-24T02:48:20;11.00;92.20
58638;DHT22;54976;51.510;7.522;2023-04-24T02:51:21;10.90;92.30
58638;DHT22;54976;51.510;7.522;2023-04-24T02:54:22;10.90;92.60
58638;DHT22;54976;51.510;7.522;2023-04-24T02:57:22;10.80;92.90
58638;DHT22;54976;51.510;7.522;2023-04-24T03:00:23;10.80;92.30
58638;DHT22;54976;51.510;7.522;2023-04-24T03:03:23;10.70;92.60
58638;DHT22;54976;51.510;7.522;2023-04-24T03:06:24;10.60;92.90
58638;DHT22;54976;51.510;7.522;2023-04-24T03:09:25;10.50;92.90
58638;DHT22;54976;51.510;7.522;2023-04-24T03:12:25;10.50;93.20
58638;DHT22;54976;51.510;7.522;2023-04-24T03:15:26;10.50;93.40
58638;DHT22;54976;51.510;7.522;2023-04-24T03:18:27;10.30;93.90
58638;DHT22;54976;51.510;7.522;2023-04-24T03:21:27;10.30;93.80
58638;DHT22;54976;51.510;7.522;2023-04-24T03:24:29;10.40;94.30
58638;DHT22;54976;51.510;7.522;2023-04-24T03:27:29;10.20;94.80
58638;DHT22;54976;51.510;7.522;2023-04-24T03:30:31;10.20;94.50
58638;DHT22;54976;51.510;7.522;2023-04-24T03:33:31;10.30;94.60
58638;DHT22;54976;51.510;7.522;2023-04-24T03:36:32;10.30;94.50
58638;DHT22;54976;51.510;7.522;2023-04-24T03:39:32;10.20;95.10
58638;DHT22;54976;51.510;7.522;2023-04-24T03:42:33;10.30;94.90
58638;DHT22;54976;51.510;7.522;2023-04-24T03:45:33;10.40;95.10
58638;DHT22;54976;51.510;7.522;2023-04-24T03:48:34;10.30;95.00
58638;DHT22;54976;51.510;7.522;2023-04-24T03:51:35;10.30;95.10
58638;DHT22;54976;51.510;7.522;2023-04-24T03:54:35;10.30;95.30
58638;DHT22;54976;51.510;7.522;2023-04-24T03:57:36;10.30;94.90
58638;DHT22;54976;51.510;7.522;2023-04-24T04:00:37;10.30;95.20
58638;DHT22;54976;51.510;7.522;2023-04-24T04:03:37;10.30;95.30
58638;DHT22;54976;51.510;7.522;2023-04-24T04:06:38;10.30;95.30
58638;DHT22;54976;51.510;7.522;2023-04-24T04:09:39;10.40;95.20
58638;DHT22;54976;51.510;7.522;2023-04-24T04:12:39;10.40;95.10
58638;DHT22;54976;51.510;7.522;2023-04-24T04:15:40;10.40;95.10
58638;DHT22;54976;51.510;7.522;2023-04-24T04:18:41;10.50;95.10
58638;DHT22;54976;51.510;7.522;2023-04-24T04:21:41;10.40;95.10
58638;DHT22;54976;51.510;7.522;2023-04-24T04:24:42;10.40;95.40
58638;DHT22;54976;51.510;7.522;2023-04-24T04:27:43;10.40;95.00
58638;DHT22;54976;51.510;7.522;2023-04-24T04:30:43;10.50;95.00
58638;DHT22;54976;51.510;7.522;2023-04-24T04:33:45;10.40;94.50
58638;DHT22;54976;51.510;7.522;2023-04-24T04:36:46;10.40;94.80
58638;DHT22;54976;51.510;7.522;2023-04-24T04:39:47;10.40;94.80
58638;DHT22;54976;51.510;7.522;2023-04-24T04:42:47;10.40;95.00
58638;DHT22;54976;51.510;7.522;2023-04-24T04:45:48;10.40;94.70
58638;DHT22;54976;51.510;7.522;2023-04-24T04:48:48;10.50;94.50
58638;DHT22;54976;51.510;7.522;2023-04-24T04:51:49;10.60;94.30
58638;DHT22;54976;51.510;7.522;2023-04-24T04:54:51;10.50;94.10
58638;DHT22;54976;51.510;7.522;2023-04-24T04:57:52;10.50;94.20
58638;DHT22;54976;51.510;7.522;2023-04-24T05:00:52;10.50;94.00
58638;DHT22;54976;51.510;7.522;2023-04-24T05:03:53;10.50;93.80
58638;DHT22;54976;51.510;7.522;2023-04-24T05:06:53;10.50;94.20
58638;DHT22;54976;51.510;7.522;2023-04-24T05:09:54;10.60;94.30
58638;DHT22;54976;51.510;7.522;2023-04-24T05:12:55;10.40;94.40
58638;DHT22;54976;51.510;7.522;2023-04-24T05:15:55;10.50;94.40
58638;DHT22;54976;51.510;7.522;2023-04-24T05:18:56;10.50;94.00
58638;DHT22;54976;51.510;7.522;2023-04-24T05:21:56;10.50;93.90
58638;DHT22;54976;51.510;7.522;2023-04-24T05:24:57;10.50;94.40
58638;DHT22;54976;51.510;7.522;2023-04-24T05:27:58;10.50;94.20
58638;DHT22;54976;51.510;7.522;2023-04-24T05:30:58;10.50;94.40
58638;DHT22;54976;51.510;7.522;2023-04-24T05:33:59;10.50;94.00
58638;DHT22;54976;51.510;7.522;2023-04-24T05:37:00;10.60;94.20
58638;DHT22;54976;51.510;7.522;2023-04-24T05:40:01;10.60;94.30
58638;DHT22;54976;51.510;7.522;2023-04-24T05:43:01;10.60;94.20
58638;DHT22;54976;51.510;7.522;2023-04-24T05:46:02;10.80;93.30
58638;DHT22;54976;51.510;7.522;2023-04-24T05:49:02;10.90;92.90
58638;DHT22;54976;51.510;7.522;2023-04-24T05:52:03;11.00;92.50
58638;DHT22;54976;51.510;7.522;2023-04-24T05:55:05;10.90;92.60
58638;DHT22;54976;51.510;7.522;2023-04-24T05:58:06;10.80;92.80
58638;DHT22;54976;51.510;7.522;2023-04-24T06:01:07;10.80;92.90
58638;DHT22;54976;51.510;7.522;2023-04-24T06:04:08;10.70;93.40
58638;DHT22;54976;51.510;7.522;2023-04-24T06:07:10;10.60;94.20
58638;DHT22;54976;51.510;7.522;2023-04-24T06:10:11;10.50;95.20
58638;DHT22;54976;51.510;7.522;2023-04-24T06:13:12;10.50;95.50
58638;DHT22;54976;51.510;7.522;2023-04-24T06:16:12;10.50;96.40
58638;DHT22;54976;51.510;7.522;2023-04-24T06:19:13;10.50;96.70
58638;DHT22;54976;51.510;7.522;2023-04-24T06:22:14;10.60;96.00
58638;DHT22;54976;51.510;7.522;2023-04-24T06:25:14;10.60;96.50
58638;DHT22;54976;51.510;7.522;2023-04-24T06:28:15;10.70;96.60
58638;DHT22;54976;51.510;7.522;2023-04-24T06:31:16;10.80;96.10
58638;DHT22;54976;51.510;7.522;2023-04-24T06:34:16;10.90;95.30
58638;DHT22;54976;51.510;7.522;2023-04-24T06:37:18;10.70;95.50
58638;DHT22;54976;51.510;7.522;2023-04-24T06:40:19;10.60;95.80
58638;DHT22;54976;51.510;7.522;2023-04-24T06:43:20;10.50;96.30
58638;DHT22;54976;51.510;7.522;2023-04-24T06:46:21;10.50;95.80
58638;DHT22;54976;51.510;7.522;2023-04-24T06:49:26;10.50;95.20
58638;DHT22;54976;51.510;7.522;2023-04-24T06:52:26;10.50;95.20
58638;DHT22;54976;51.510;7.522;2023-04-24T06:55:27;10.40;95.70
58638;DHT22;54976;51.510;7.522;2023-04-24T06:58:28;10.50;95.80
58638;DHT22;54976;51.510;7.522;2023-04-24T07:01:28;10.50;95.30
58638;DHT22;54976;51.510;7.522;2023-04-24T07:04:29;10.50;95.40
58638;DHT22;54976;51.510;7.522;2023-04-24T07:07:30;10.70;95.70
58638;DHT22;54976;51.510;7.522;2023-04-24T07:10:31;11.00;94.90
58638;DHT22;54976;51.510;7.522;2023-04-24T07:13:35;11.40;94.30
58638;DHT22;54976;51.510;7.522;2023-04-24T07:16:36;11.60;93.40
58638;DHT22;54976;51.510;7.522;2023-04-24T07:19:37;11.80;92.90
58638;DHT22;54976;51.510;7.522;2023-04-24T07:22:38;11.60;93.60
58638;DHT22;54976;51.510;7.522;2023-04-24T07:25:39;11.40;94.60
58638;DHT22;54976;51.510;7.522;2023-04-24T07:28:40;11.00;95.70
58638;DHT22;54976;51.510;7.522;2023-04-24T07:31:41;11.00;96.20
58638;DHT22;54976;51.510;7.522;2023-04-24T07:34:41;11.10;95.90
58638;DHT22;54976;51.510;7.522;2023-04-24T07:37:42;11.20;95.30
58638;DHT22;54976;51.510;7.522;2023-04-24T07:40:46;11.40;95.40
58638;DHT22;54976;51.510;7.522;2023-04-24T07:43:46;11.10;94.60
58638;DHT22;54976;51.510;7.522;2023-04-24T07:46:47;10.80;94.60
58638;DHT22;54976;51.510;7.522;2023-04-24T07:49:47;10.80;95.00
58638;DHT22;54976;51.510;7.522;2023-04-24T07:52:48;10.80;94.80
58638;DHT22;54976;51.510;7.522;2023-04-24T07:55:49;10.70;95.10
58638;DHT22;54976;51.510;7.522;2023-04-24T07:58:49;10.60;95.60
58638;DHT22;54976;51.510;7.522;2023-04-24T08:01:50;10.40;95.60
58638;DHT22;54976;51.510;7.522;2023-04-24T08:04:51;10.40;95.40
58638;DHT22;54976;51.510;7.522;2023-04-24T08:07:52;10.40;95.30
58638;DHT22;54976;51.510;7.522;2023-04-24T08:10:53;10.60;96.20
58638;DHT22;54976;51.510;7.522;2023-04-24T08:13:53;10.70;94.10
58638;DHT22;54976;51.510;7.522;2023-04-24T08:16:55;10.90;94.40
58638;DHT22;54976;51.510;7.522;2023-04-24T08:19:56;10.90;93.80
58638;DHT22;54976;51.510;7.522;2023-04-24T08:23:01;11.10;93.60
58638;DHT22;54976;51.510;7.522;2023-04-24T08:26:02;11.00;93.50
58638;DHT22;54976;51.510;7.522;2023-04-24T08:29:04;10.90;94.80
58638;DHT22;54976;51.510;7.522;2023-04-24T08:32:04;10.40;97.30
58638;DHT22;54976;51.510;7.522;2023-04-24T08:35:05;10.30;98.10
58638;DHT22;54976;51.510;7.522;2023-04-24T08:38:08;10.10;98.80
58638;DHT22;54976;51.510;7.522;2023-04-24T08:41:09;10.30;99.00
58638;DHT22;54976;51.510;7.522;2023-04-24T08:44:11;10.30;97.40
58638;DHT22;54976;51.510;7.522;2023-04-24T08:47:13;10.50;97.60
58638;DHT22;54976;51.510;7.522;2023-04-24T08:50:13;10.40;96.00
58638;DHT22;54976;51.510;7.522;2023-04-24T08:53:16;10.40;96.30
58638;DHT22;54976;51.510;7.522;2023-04-24T08:56:16;10.20;96.20
58638;DHT22;54976;51.510;7.522;2023-04-24T08:59:18;10.10;96.70
58638;DHT22;54976;51.510;7.522;2023-04-24T09:02:18;9.90;98.40
58638;DHT22;54976;51.510;7.522;2023-04-24T09:05:21;9.80;99.00
58638;DHT22;54976;51.510;7.522;2023-04-24T09:08:24;9.80;98.90
58638;DHT22;54976;51.510;7.522;2023-04-24T09:11:26;9.60;99.50
58638;DHT22;54976;51.510;7.522;2023-04-24T09:14:27;9.50;99.90
58638;DHT22;54976;51.510;7.522;2023-04-24T09:17:28;9.50;99.90
58638;DHT22;54976;51.510;7.522;2023-04-24T09:20:29;9.40;99.90
58638;DHT22;54976;51.510;7.522;2023-04-24T09:23:30;9.30;99.90
58638;DHT22;54976;51.510;7.522;2023-04-24T09:26:34;9.30;99.90
58638;DHT22;54976;51.510;7.522;2023-04-24T09:29:35;9.20;99.90
58638;DHT22;54976;51.510;7.522;2023-04-24T09:32:36;9.20;99.90
58638;DHT22;54976;51.510;7.522;2023-04-24T09:35:52;9.30;99.90
58638;DHT22;54976;51.510;7.522;2023-04-24T09:38:58;9.30;99.90
58638;DHT22;54976;51.510;7.522;2023-04-24T09:42:01;9.30;99.90
58638;DHT22;54976;51.510;7.522;2023-04-24T09:45:02;9.30;99.90
58638;DHT22;54976;51.510;7.522;2023-04-24T09:48:04;9.30;99.90
58638;DHT22;54976;51.510;7.522;2023-04-24T09:51:06;9.30;99.90
58638;DHT22;54976;51.510;7.522;2023-04-24T09:54:14;9.30;99.90
58638;DHT22;54976;51.510;7.522;2023-04-24T09:57:16;9.30;99.90
58638;DHT22;54976;51.510;7.522;2023-04-24T10:00:25;9.40;99.90
58638;DHT22;54976;51.510;7.522;2023-04-24T10:03:30;9.50;99.90
58638;DHT22;54976;51.510;7.522;2023-04-24T10:06:35;9.70;99.90
58638;DHT22;54976;51.510;7.522;2023-04-24T10:09:36;9.80;99.90
58638;DHT22;54976;51.510;7.522;2023-04-24T10:12:37;9.80;99.90
58638;DHT22;54976;51.510;7.522;2023-04-24T10:15:38;9.90;99.90
58638;DHT22;54976;51.510;7.522;2023-04-24T10:18:41;9.90;99.90
58638;DHT22;54976;51.510;7.522;2023-04-24T10:21:43;9.80;99.90
58638;DHT22;54976;51.510;7.522;2023-04-24T10:24:47;9.70;99.90
58638;DHT22;54976;51.510;7.522;2023-04-24T10:27:51;9.70;99.90
58638;DHT22;54976;51.510;7.522;2023-04-24T10:30:54;9.60;99.90
58638;DHT22;54976;51.510;7.522;2023-04-24T10:33:55;9.60;99.90
58638;DHT22;54976;51.510;7.522;2023-04-24T10:36:57;9.60;99.90
58638;DHT22;54976;51.510;7.522;2023-04-24T10:39:58;9.60;99.90
58638;DHT22;54976;51.510;7.522;2023-04-24T10:42:59;9.50;99.90
58638;DHT22;54976;51.510;7.522;2023-04-24T10:46:05;9.40;99.90
58638;DHT22;54976;51.510;7.522;2023-04-24T10:49:06;9.50;99.90
58638;DHT22;54976;51.510;7.522;2023-04-24T10:52:09;9.70;99.90
58638;DHT22;54976;51.510;7.522;2023-04-24T10:55:09;9.60;99.90
58638;DHT22;54976;51.510;7.522;2023-04-24T10:58:10;9.40;99.90
58638;DHT22;54976;51.510;7.522;2023-04-24T11:01:31;9.60;99.90
58638;DHT22;54976;51.510;7.522;2023-04-24T11:04:33;9.70;99.90
58638;DHT22;54976;51.510;7.522;2023-04-24T11:08:10;9.70;99.90
58638;DHT22;54976;51.510;7.522;2023-04-24T11:11:17;9.70;99.90
58638;DHT22;54976;51.510;7.522;2023-04-24T11:14:18;9.70;99.90
58638;DHT22;54976;51.510;7.522;2023-04-24T11:17:35;9.70;99.90
58638;DHT22;54976;51.510;7.522;2023-04-24T11:20:42;9.50;99.90
58638;DHT22;54976;51.510;7.522;2023-04-24T11:23:43;9.50;99.90
58638;DHT22;54976;51.510;7.522;2023-04-24T11:26:44;9.40;99.90
58638;DHT22;54976;51.510;7.522;2023-04-24T11:33:04;9.40;99.90
58638;DHT22;54976;51.510;7.522;2023-04-24T11:36:05;9.60;99.90
58638;DHT22;54976;51.510;7.522;2023-04-24T11:39:06;9.70;99.90
58638;DHT22;54976;51.510;7.522;2023-04-24T11:42:08;9.70;99.90
58638;DHT22;54976;51.510;7.522;2023-04-24T11:48:11;9.70;99.90
58638;DHT22;54976;51.510;7.522;2023-04-24T11:51:15;9.80;99.90
58638;DHT22;54976;51.510;7.522;2023-04-24T11:54:16;9.90;99.90
58638;DHT22;54976;51.510;7.522;2023-04-24T11:57:19;10.00;99.90
58638;DHT22;54976;51.510;7.522;2023-04-24T12:00:27;10.00;99.90
58638;DHT22;54976;51.510;7.522;2023-04-24T12:03:28;10.10;99.90
58638;DHT22;54976;51.510;7.522;2023-04-24T12:06:29;10.20;99.90
58638;DHT22;54976;51.510;7.522;2023-04-24T12:09:41;10.20;99.90
58638;DHT22;54976;51.510;7.522;2023-04-24T12:12:45;10.10;99.90
58638;DHT22;54976;51.510;7.522;2023-04-24T12:15:46;10.10;99.90
58638;DHT22;54976;51.510;7.522;2023-04-24T12:18:47;10.00;99.90
58638;DHT22;54976;51.510;7.522;2023-04-24T12:22:05;9.90;99.90
58638;DHT22;54976;51.510;7.522;2023-04-24T12:25:10;9.80;99.90
58638;DHT22;54976;51.510;7.522;2023-04-24T12:28:12;9.70;99.90
58638;DHT22;54976;51.510;7.522;2023-04-24T12:31:13;9.70;99.90
58638;DHT22;54976;51.510;7.522;2023-04-24T12:34:21;9.60;99.90
58638;DHT22;54976;51.510;7.522;2023-04-24T12:37:26;9.60;99.90
58638;DHT22;54976;51.510;7.522;2023-04-24T12:40:26;9.70;99.90
58638;DHT22;54976;51.510;7.522;2023-04-24T12:43:29;10.00;99.90
58638;DHT22;54976;51.510;7.522;2023-04-24T12:46:29;10.60;99.90
58638;DHT22;54976;51.510;7.522;2023-04-24T12:49:30;11.40;99.30
58638;DHT22;54976;51.510;7.522;2023-04-24T12:52:31;11.90;97.70
58638;DHT22;54976;51.510;7.522;2023-04-24T12:55:32;12.10;96.60
58638;DHT22;54976;51.510;7.522;2023-04-24T12:58:33;11.90;96.10
58638;DHT22;54976;51.510;7.522;2023-04-24T13:01:33;11.60;96.40
58638;DHT22;54976;51.510;7.522;2023-04-24T13:04:34;11.50;94.90
58638;DHT22;54976;51.510;7.522;2023-04-24T13:07:34;11.20;95.00
58638;DHT22;54976;51.510;7.522;2023-04-24T13:10:35;11.00;95.60
58638;DHT22;54976;51.510;7.522;2023-04-24T13:13:36;10.70;96.70
58638;DHT22;54976;51.510;7.522;2023-04-24T13:16:36;10.50;96.90
58638;DHT22;54976;51.510;7.522;2023-04-24T13:19:41;10.40;98.30
58638;DHT22;54976;51.510;7.522;2023-04-24T13:22:42;10.40;98.50
58638;DHT22;54976;51.510;7.522;2023-04-24T13:25:43;10.40;97.30
58638;DHT22;54976;51.510;7.522;2023-04-24T13:28:43;10.60;97.20
58638;DHT22;54976;51.510;7.522;2023-04-24T13:31:44;10.90;97.20
58638;DHT22;54976;51.510;7.522;2023-04-24T13:34:45;11.10;95.50
58638;DHT22;54976;51.510;7.522;2023-04-24T13:37:46;11.30;95.60
58638;DHT22;54976;51.510;7.522;2023-04-24T13:40:46;11.40;94.40
58638;DHT22;54976;51.510;7.522;2023-04-24T13:43:47;11.40;93.80
58638;DHT22;54976;51.510;7.522;2023-04-24T13:46:49;11.20;92.80
58638;DHT22;54976;51.510;7.522;2023-04-24T13:49:51;11.10;91.60
58638;DHT22;54976;51.510;7.522;2023-04-24T13:52:51;10.90;92.50
58638;DHT22;54976;51.510;7.522;2023-04-24T13:55:52;10.90;92.60
58638;DHT22;54976;51.510;7.522;2023-04-24T13:58:53;10.80;92.50
58638;DHT22;54976;51.510;7.522;2023-04-24T14:01:54;10.70;92.90
58638;DHT22;54976;51.510;7.522;2023-04-24T14:04:55;10.70;93.20
58638;DHT22;54976;51.510;7.522;2023-04-24T14:07:56;10.80;91.30
58638;DHT22;54976;51.510;7.522;2023-04-24T14:10:56;10.80;90.90
58638;DHT22;54976;51.510;7.522;2023-04-24T14:13:58;10.80;91.60
58638;DHT22;54976;51.510;7.522;2023-04-24T14:16:59;10.70;92.20
58638;DHT22;54976;51.510;7.522;2023-04-24T14:20:00;10.80;91.30
58638;DHT22;54976;51.510;7.522;2023-04-24T14:23:01;10.70;91.20
58638;DHT22;54976;51.510;7.522;2023-04-24T14:26:01;10.80;90.60
58638;DHT22;54976;51.510;7.522;2023-04-24T14:29:02;11.00;90.80
58638;DHT22;54976;51.510;7.522;2023-04-24T14:32:02;11.40;88.40
58638;DHT22;54976;51.510;7.522;2023-04-24T14:35:03;11.70;86.60
58638;DHT22;54976;51.510;7.522;2023-04-24T14:38:04;11.90;86.20
58638;DHT22;54976;51.510;7.522;2023-04-24T14:41:05;11.90;82.10
58638;DHT22;54976;51.510;7.522;2023-04-24T14:44:09;12.10;82.30
58638;DHT22;54976;51.510;7.522;2023-04-24T14:47:10;12.30;82.30
58638;DHT22;54976;51.510;7.522;2023-04-24T14:50:11;12.30;78.80
58638;DHT22;54976;51.510;7.522;2023-04-24T14:53:12;12.30;80.00
58638;DHT22;54976;51.510;7.522;2023-04-24T14:56:13;12.20;80.40
58638;DHT22;54976;51.510;7.522;2023-04-24T14:59:14;12.20;80.70
58638;DHT22;54976;51.510;7.522;2023-04-24T15:02:15;11.90;79.00
58638;DHT22;54976;51.510;7.522;2023-04-24T15:05:15;11.60;81.90
58638;DHT22;54976;51.510;7.522;2023-04-24T15:08:16;11.40;79.50
58638;DHT22;54976;51.510;7.522;2023-04-24T15:11:17;11.30;82.70
58638;DHT22;54976;51.510;7.522;2023-04-24T15:14:18;11.30;83.20
58638;DHT22;54976;51.510;7.522;2023-04-24T15:17:19;11.20;82.90
58638;DHT22;54976;51.510;7.522;2023-04-24T15:20:19;11.10;83.80
58638;DHT22;54976;51.510;7.522;2023-04-24T15:23:20;10.90;86.60
58638;DHT22;54976;51.510;7.522;2023-04-24T15:26:21;10.70;91.40
58638;DHT22;54976;51.510;7.522;2023-04-24T15:29:22;10.60;92.50
58638;DHT22;54976;51.510;7.522;2023-04-24T15:32:23;10.60;94.50
58638;DHT22;54976;51.510;7.522;2023-04-24T15:35:23;10.50;94.70
58638;DHT22;54976;51.510;7.522;2023-04-24T15:38:24;10.50;95.40
58638;DHT22;54976;51.510;7.522;2023-04-24T15:41:25;10.50;95.30
58638;DHT22;54976;51.510;7.522;2023-04-24T15:44:25;10.60;96.20
58638;DHT22;54976;51.510;7.522;2023-04-24T15:47:26;11.10;95.70
58638;DHT22;54976;51.510;7.522;2023-04-24T15:50:27;12.00;92.90
58638;DHT22;54976;51.510;7.522;2023-04-24T15:53:27;13.30;90.80
58638;DHT22;54976;51.510;7.522;2023-04-24T15:56:28;13.20;86.00
58638;DHT22;54976;51.510;7.522;2023-04-24T15:59:28;12.60;84.60
58638;DHT22;54976;51.510;7.522;2023-04-24T16:02:30;12.80;83.00
58638;DHT22;54976;51.510;7.522;2023-04-24T16:05:32;12.50;83.00
58638;DHT22;54976;51.510;7.522;2023-04-24T16:08:34;12.30;84.60
58638;DHT22;54976;51.510;7.522;2023-04-24T16:11:34;12.10;86.10
58638;DHT22;54976;51.510;7.522;2023-04-24T16:14:39;11.90;85.40
58638;DHT22;54976;51.510;7.522;2023-04-24T16:17:39;11.90;86.40
58638;DHT22;54976;51.510;7.522;2023-04-24T16:20:40;11.90;86.20
58638;DHT22;54976;51.510;7.522;2023-04-24T16:23:41;12.10;86.30
58638;DHT22;54976;51.510;7.522;2023-04-24T16:26:41;12.40;85.50
58638;DHT22;54976;51.510;7.522;2023-04-24T16:29:42;12.40;82.40
58638;DHT22;54976;51.510;7.522;2023-04-24T16:32:43;12.60;78.10
58638;DHT22;54976;51.510;7.522;2023-04-24T16:35:44;12.60;78.60
58638;DHT22;54976;51.510;7.522;2023-04-24T16:38:46;12.50;79.20
58638;DHT22;54976;51.510;7.522;2023-04-24T16:41:48;12.30;79.50
58638;DHT22;54976;51.510;7.522;2023-04-24T16:44:49;12.10;79.30
58638;DHT22;54976;51.510;7.522;2023-04-24T16:47:50;12.20;77.60
58638;DHT22;54976;51.510;7.522;2023-04-24T16:50:50;12.30;74.40
58638;DHT22;54976;51.510;7.522;2023-04-24T16:53:51;12.10;75.80
58638;DHT22;54976;51.510;7.522;2023-04-24T16:56:52;11.90;78.40
58638;DHT22;54976;51.510;7.522;2023-04-24T16:59:53;11.60;78.70
58638;DHT22;54976;51.510;7.522;2023-04-24T17:02:54;11.50;81.50
58638;DHT22;54976;51.510;7.522;2023-04-24T17:05:54;11.30;81.10
58638;DHT22;54976;51.510;7.522;2023-04-24T17:08:55;11.20;81.10
58638;DHT22;54976;51.510;7.522;2023-04-24T17:11:56;11.10;83.10
58638;DHT22;54976;51.510;7.522;2023-04-24T17:14:57;11.00;83.40
58638;DHT22;54976;51.510;7.522;2023-04-24T17:17:57;10.90;83.90
58638;DHT22;54976;51.510;7.522;2023-04-24T17:20:58;10.80;84.30
58638;DHT22;54976;51.510;7.522;2023-04-24T17:23:59;10.80;84.40
58638;DHT22;54976;51.510;7.522;2023-04-24T17:26:59;10.70;85.50
58638;DHT22;54976;51.510;7.522;2023-04-24T17:30:00;10.70;88.50
58638;DHT22;54976;51.510;7.522;2023-04-24T17:33:00;10.70;87.00
58638;DHT22;54976;51.510;7.522;2023-04-24T17:36:01;10.60;87.70
58638;DHT22;54976;51.510;7.522;2023-04-24T17:39:02;10.70;87.50
58638;DHT22;54976;51.510;7.522;2023-04-24T17:42:03;10.60;87.80
58638;DHT22;54976;51.510;7.522;2023-04-24T17:45:04;10.50;88.20
58638;DHT22;54976;51.510;7.522;2023-04-24T17:48:05;10.30;86.50
58638;DHT22;54976;51.510;7.522;2023-04-24T17:51:05;10.20;87.50
58638;DHT22;54976;51.510;7.522;2023-04-24T17:54:06;10.20;87.50
58638;DHT22;54976;51.510;7.522;2023-04-24T17:57:06;10.20;87.10
58638;DHT22;54976;51.510;7.522;2023-04-24T18:00:07;10.10;87.70
58638;DHT22;54976;51.510;7.522;2023-04-24T18:03:09;10.00;88.40
58638;DHT22;54976;51.510;7.522;2023-04-24T18:06:09;10.00;88.20
58638;DHT22;54976;51.510;7.522;2023-04-24T18:09:10;10.00;87.70
58638;DHT22;54976;51.510;7.522;2023-04-24T18:12:11;10.00;89.40
58638;DHT22;54976;51.510;7.522;2023-04-24T18:15:12;9.90;88.90
58638;DHT22;54976;51.510;7.522;2023-04-24T18:18:13;9.90;88.70
58638;DHT22;54976;51.510;7.522;2023-04-24T18:21:14;9.90;90.00
58638;DHT22;54976;51.510;7.522;2023-04-24T18:24:15;9.90;88.20
58638;DHT22;54976;51.510;7.522;2023-04-24T18:27:15;9.80;87.60
58638;DHT22;54976;51.510;7.522;2023-04-24T18:30:16;9.80;87.10
58638;DHT22;54976;51.510;7.522;2023-04-24T18:33:17;9.70;88.10
58638;DHT22;54976;51.510;7.522;2023-04-24T18:36:18;9.70;88.00
58638;DHT22;54976;51.510;7.522;2023-04-24T18:39:19;9.50;87.50
58638;DHT22;54976;51.510;7.522;2023-04-24T18:42:19;9.40;88.60
58638;DHT22;54976;51.510;7.522;2023-04-24T18:45:20;9.30;89.60
58638;DHT22;54976;51.510;7.522;2023-04-24T18:48:21;9.20;90.60
58638;DHT22;54976;51.510;7.522;2023-04-24T18:51:21;9.20;90.70
58638;DHT22;54976;51.510;7.522;2023-04-24T18:54:22;9.10;90.60
58638;DHT22;54976;51.510;7.522;2023-04-24T18:57:23;9.10;91.00
58638;DHT22;54976;51.510;7.522;2023-04-24T19:00:23;9.00;91.20
58638;DHT22;54976;51.510;7.522;2023-04-24T19:03:24;9.00;91.70
58638;DHT22;54976;51.510;7.522;2023-04-24T19:06:25;8.90;92.20
58638;DHT22;54976;51.510;7.522;2023-04-24T19:09:25;8.90;91.90
58638;DHT22;54976;51.510;7.522;2023-04-24T19:12:26;8.80;92.40
58638;DHT22;54976;51.510;7.522;2023-04-24T19:15:27;8.70;92.90
58638;DHT22;54976;51.510;7.522;2023-04-24T19:18:29;8.70;92.80